ADDS TAF Board (Experimental) INFO Settings
IDs: Format: Expanded Condensed

KTPA - Tampa Intl Arpt, FL, US

Issued at 0540 UTC 03 Aug 2015
Updated at: 0837 UTC 03 Aug 2015
Time0823Z 03/09Z 03/10Z 03/11Z 03/12Z 03/13Z 03/14Z 03/15Z 03/16Z 03/17Z 03/18Z 03/19Z 03/20Z 03/21Z
Type OBS PRVL PRVL PRVL PRVL PRVL PRVL PRVL PRVL PRVL PRVL PRVL PRVL PRVL
VIS 10 >6 >6 >6 >6 >6 >6 >6 >6 >6 >6 >6 >6 >6
CIG 70 50 50 50 50 50 50 50 50 50 50 50 50 50
Cover BKN OVC OVC OVC OVC OVC OVC OVC OVC OVC OVC OVC OVC OVC
FltCat VFR VFR VFR VFR VFR VFR VFR VFR VFR VFR VFR VFR VFR VFR
WX TS -RA -RA -RA -RA -RA -RA VCTS -RA VCTS -RA VCTS -RA VCTS VCTS VCTS VCTS VCTS
WDir 180 210 210 210 210 210 230 230 230 230 250 250 250 250
WSpd 11 12 12 12 12 12 14 14 14 14 15 15 15 15
WGst -- -- -- -- -- -- 20 20 20 20 25 25 25 25
R01/19
XWnd -0 6 6 6 6 6 10 10 10 10 14 14 14 14
XGst -- -- -- -- -- -- 15 15 15 15 23 23 23 23
HWnd -11 -11 -11 -11 -11 -11 -9 -9 -9 -9 -6 -6 -6 -6
HGst -- -- -- -- -- -- -13 -13 -13 -13 -9 -9 -9 -9
R10/28
XWnd -11 -11 -11 -11 -11 -11 -9 -9 -9 -9 -6 -6 -6 -6
XGst -- -- -- -- -- -- -13 -13 -13 -13 -9 -9 -9 -9
HWnd 0 -6 -6 -6 -6 -6 -10 -10 -10 -10 -14 -14 -14 -14
HGst -- -- -- -- -- -- -15 -15 -15 -15 -23 -23 -23 -23

NOTE: TEMPO conditions in [brackets]. Keep in mind TEMPO conditions might be better (lower impact) than prevailing conditions.

Raw TAF
KTPA 030540Z 0306/0406 21012KT P6SM VCSH SCT025 BKN050 OVC080
  FM030800 21012KT P6SM -RA SCT035 OVC050
  FM031400 23014G20KT P6SM -RA VCTS SCT025CB OVC050
  FM031800 25015G25KT P6SM VCTS SCT025CB BKN050 OVC080
  FM040200 24008KT P6SM SCT020 BKN035 OVC050


Raw METAR
KTPA 030823Z 18011KT 10SM TS SCT040CB BKN070 BKN100 27/22 A2987 RMK AO2 TSB22 FRQ LTGICCG NW-N CB NW-N MOV NE T02670222
KTPA 030753Z 19011KT 10SM FEW035 BKN060 OVC140 27/23 A2987 RMK AO2 SLP115 OCNL LTGIC DSNT NW CB DSNT NW T02670228
KTPA 030653Z 19011KT 10SM FEW025 BKN055 OVC140 26/23 A2987 RMK AO2 RAB0554E20 SLP115 P0003 T02610228
KTPA 030553Z 21010KT 10SM FEW012 SCT049 BKN060 BKN150 26/23 A2991 RMK AO2 RAB33E43 SLP127 P0000 60000 T02560233 10272 20256 58007

METAR Board
Radar Display
Forecast Discussion

TAF Board Legend

Potential Impact
Threat None Slight Moderate High
Visibility (sm) ≥5.1 5.1>X≥3 3>X≥1 <1
Ceiling (100 ft) ≥30.1 30.1>X≥10 10>X≥5 <5
Wind Speed (kt) <10 10≤X<20 20≤X<30 ≥30
Wind Gust (kt) <15 15≤X<25 25≤X<35 ≥35
Weather No Wx Reported VCTS,-TS,-FZRA,SN TS,FZRA +TS,+FZRA,+SN